Time;durP1;ratioP1;P1;durP2;ratioP2;P2;SDS_P1;SDS_P2;PMS_P1;PMS_P2;Temp;Humidity;BMP_temperature;BMP_pressure;BME280_temperature;BME280_humidity;BME280_pressure;Samples;Min_cycle;Max_cycle;Signal;HPM_P1;HPM_P2
2022/09/16 04:09:23;;;;;;;9.50;7.93;;;;;;;17.42;93.89;99781.75;5602547;31;76307;-56
2022/09/16 04:12:25;;;;;;;10.20;7.62;;;;;;;17.42;93.89;99781.75;5603192;31;33511;-56
2022/09/16 04:15:27;;;;;;;9.00;7.53;;;;;;;16.96;96.23;99787.31;5602866;31;33617;-56
2022/09/16 04:18:31;;;;;;;9.70;7.80;;;;;;;16.96;95.77;99776.47;5602774;31;33600;-54
2022/09/16 04:21:33;;;;;;;9.77;7.82;;;;;;;16.96;95.23;99778.41;5603412;31;34249;-54
2022/09/16 04:24:35;;;;;;;11.25;8.50;;;;;;;17.02;93.47;99788.66;5603002;31;33631;-54
2022/09/16 04:27:37;;;;;;;11.38;8.77;;;;;;;16.98;91.60;99784.25;5603138;31;33732;-54
2022/09/16 04:30:40;;;;;;;11.35;7.57;;;;;;;16.99;91.85;99793.97;5595710;31;33532;-53
2022/09/16 04:33:42;;;;;;;9.93;7.85;;;;;;;17.02;88.24;99793.25;5584095;31;34197;-54
2022/09/16 04:36:44;;;;;;;11.52;8.15;;;;;;;17.05;86.73;99790.69;5585237;31;33071;-54
2022/09/16 04:39:46;;;;;;;12.93;7.53;;;;;;;17.03;86.30;99781.31;5583500;31;33609;-55
2022/09/16 04:42:50;;;;;;;11.00;8.45;;;;;;;17.13;86.18;99786.28;5601986;31;33791;-54
2022/09/16 04:45:52;;;;;;;13.18;7.72;;;;;;;17.18;87.31;99780.63;5602756;31;34180;-53
2022/09/16 04:48:55;;;;;;;11.90;7.57;;;;;;;17.08;85.52;99787.28;5593458;31;34357;-53
2022/09/16 04:51:57;;;;;;;10.60;7.95;;;;;;;17.22;83.76;99778.03;5577130;31;33681;-54
2022/09/16 04:54:59;;;;;;;11.45;8.90;;;;;;;17.31;85.03;99779.50;5578708;31;33865;-54
2022/09/16 04:58:01;;;;;;;11.73;8.73;;;;;;;17.14;86.45;99777.03;5579700;31;34252;-54
2022/09/16 05:01:11;;;;;;;12.57;8.95;;;;;;;17.15;86.47;99789.44;5580389;31;33556;-54
2022/09/16 05:04:13;;;;;;;10.75;8.60;;;;;;;17.14;89.13;99796.00;5578020;31;33656;-54
2022/09/16 05:07:16;;;;;;;10.32;8.63;;;;;;;17.18;88.30;99788.75;5583706;31;34368;-54
2022/09/16 05:10:18;;;;;;;16.30;7.57;;;;;;;17.14;89.34;99780.53;5583237;31;34411;-53
2022/09/16 05:13:22;;;;;;;10.20;7.87;;;;;;;17.18;86.19;99780.63;5585036;31;33177;-54
2022/09/16 05:16:24;;;;;;;10.27;7.30;;;;;;;17.20;87.97;99788.44;5602282;31;33691;-54
2022/09/16 05:19:26;;;;;;;10.68;7.50;;;;;;;17.14;85.22;99791.34;5576095;31;33205;-54
2022/09/16 05:22:28;;;;;;;14.13;8.18;;;;;;;17.20;83.59;99797.34;5569029;31;33608;-54
2022/09/16 05:25:32;;;;;;;12.52;7.35;;;;;;;17.20;87.26;99794.66;5568664;32;33311;-54
2022/09/16 05:28:35;;;;;;;10.25;7.30;;;;;;;17.25;81.99;99793.63;5571678;31;33817;-54
2022/09/16 05:31:40;;;;;;;10.30;7.37;;;;;;;17.26;83.02;99804.13;5565480;31;33541;-53
2022/09/16 05:34:42;;;;;;;14.25;7.35;;;;;;;17.30;82.24;99805.03;5556636;32;33664;-54
2022/09/16 05:37:44;;;;;;;12.07;7.03;;;;;;;17.33;81.79;99798.16;5557988;32;34330;-54
2022/09/16 05:40:46;;;;;;;10.35;7.85;;;;;;;17.36;84.96;99808.31;5556867;32;33590;-54
2022/09/16 05:43:50;;;;;;;9.05;7.55;;;;;;;17.33;80.96;99806.28;5576562;31;34421;-54
2022/09/16 05:46:53;;;;;;;10.30;7.85;;;;;;;17.33;83.33;99803.56;5566820;31;33707;-53
2022/09/16 05:49:55;;;;;;;15.63;8.40;;;;;;;17.34;85.59;99805.91;5552058;32;33729;-55
2022/09/16 05:52:57;;;;;;;14.48;9.10;;;;;;;17.41;85.79;99804.56;5567108;32;33599;-55
2022/09/16 05:56:05;;;;;;;11.73;8.07;;;;;;;17.34;86.73;99813.25;5556702;32;34242;-55
2022/09/16 05:59:10;;;;;;;11.07;8.02;;;;;;;17.33;85.84;99798.94;5572279;31;33698;-55
2022/09/16 06:02:14;;;;;;;11.57;8.25;;;;;;;17.41;83.79;99794.50;5560364;31;34425;-55
2022/09/16 06:05:17;;;;;;;12.70;7.60;;;;;;;17.51;81.92;99804.09;5559521;32;33546;-55
2022/09/16 06:08:19;;;;;;;13.35;8.80;;;;;;;17.45;81.25;99810.87;5552000;31;34282;-55
2022/09/16 06:11:23;;;;;;;12.90;8.73;;;;;;;17.41;82.69;99820.81;5557710;32;33942;-55
2022/09/16 06:14:27;;;;;;;10.32;8.10;;;;;;;17.42;85.14;99814.25;5561523;31;33488;-55
2022/09/16 06:17:29;;;;;;;12.68;8.73;;;;;;;17.45;83.14;99810.87;5564826;31;34373;-55
2022/09/16 06:20:31;;;;;;;12.93;8.15;;;;;;;17.49;86.46;99822.62;5565320;32;33773;-55
2022/09/16 06:23:35;;;;;;;11.52;8.00;;;;;;;17.54;84.21;99822.41;5560083;31;33998;-55
2022/09/16 06:26:39;;;;;;;11.88;8.65;;;;;;;17.60;84.98;99821.81;5548371;32;33685;-55
2022/09/16 06:29:42;;;;;;;11.17;7.60;;;;;;;17.57;87.37;99814.38;5551622;32;33736;-55
2022/09/16 06:32:44;;;;;;;15.18;8.10;;;;;;;17.56;84.79;99806.59;5549165;32;33318;-55
2022/09/16 06:35:46;;;;;;;12.18;8.20;;;;;;;17.58;86.10;99801.59;5563444;32;34017;-55
2022/09/16 06:38:50;;;;;;;14.35;6.95;;;;;;;17.60;83.75;99799.34;5569005;31;33642;-55
2022/09/16 06:41:52;;;;;;;11.55;8.38;;;;;;;17.61;78.86;99795.50;5562673;32;33712;-55
2022/09/16 06:44:57;;;;;;;16.33;7.22;;;;;;;17.60;84.44;99810.19;5566407;31;33625;-55
2022/09/16 06:48:00;;;;;;;11.57;8.23;;;;;;;17.62;78.19;99811.44;5567123;32;33620;-55
2022/09/16 06:51:06;;;;;;;12.10;7.50;;;;;;;17.69;78.68;99805.44;5554984;32;34191;-56
2022/09/16 06:54:09;;;;;;;13.25;8.63;;;;;;;17.69;80.31;99810.09;5561091;31;34317;-54
2022/09/16 06:57:11;;;;;;;10.50;8.25;;;;;;;17.68;85.38;99811.19;5563162;32;33701;-55
2022/09/16 07:00:14;;;;;;;13.50;8.25;;;;;;;17.68;87.67;99814.72;5557949;32;34273;-55
2022/09/16 07:03:16;;;;;;;9.50;7.93;;;;;;;17.69;87.39;99813.59;5574181;31;33656;-55
2022/09/16 07:06:20;;;;;;;9.85;8.75;;;;;;;17.80;85.38;99808.50;5564781;31;34388;-54
2022/09/16 07:09:22;;;;;;;9.48;7.72;;;;;;;17.74;87.04;99815.25;5513505;32;34857;-55
2022/09/16 07:12:26;;;;;;;12.00;8.48;;;;;;;17.73;87.28;99825.31;5511008;32;34627;-55
2022/09/16 07:15:28;;;;;;;10.25;7.65;;;;;;;17.81;87.13;99821.72;5510580;32;34284;-55
2022/09/16 07:18:31;;;;;;;11.70;7.72;;;;;;;17.81;86.87;99823.63;5510622;32;33739;-55
2022/09/16 07:21:33;;;;;;;13.40;8.07;;;;;;;17.87;87.94;99822.25;5521331;32;33664;-55
2022/09/16 07:24:36;;;;;;;8.90;7.20;;;;;;;17.87;87.50;99826.91;5516394;32;33665;-55
2022/09/16 07:27:39;;;;;;;13.88;7.72;;;;;;;17.91;87.14;99831.28;5515482;32;33605;-55
2022/09/16 07:30:41;;;;;;;11.90;7.95;;;;;;;17.87;87.82;99830.41;5520227;32;33674;-55
2022/09/16 07:33:46;;;;;;;11.45;7.53;;;;;;;17.86;87.07;99838.88;5511781;32;33281;-56
2022/09/16 07:36:49;;;;;;;14.87;7.70;;;;;;;17.94;86.42;99837.94;5509867;32;33886;-55
2022/09/16 07:39:51;;;;;;;10.38;6.75;;;;;;;17.88;87.63;99847.44;5509620;32;34946;-55
2022/09/16 07:42:53;;;;;;;9.85;7.18;;;;;;;17.88;85.08;99837.41;5509365;32;34321;-55
2022/09/16 07:45:57;;;;;;;13.60;6.97;;;;;;;17.91;85.30;99849.47;5524867;32;34321;-55
2022/09/16 07:49:01;;;;;;;12.57;7.12;;;;;;;17.95;84.36;99848.47;5510386;32;33675;-55
2022/09/16 07:52:03;;;;;;;10.98;6.75;;;;;;;17.96;83.07;99847.31;5512109;32;33646;-56
2022/09/16 07:55:05;;;;;;;9.70;6.00;;;;;;;17.94;85.18;99846.88;5517503;32;34382;-55
2022/09/16 07:58:07;;;;;;;11.15;6.53;;;;;;;17.92;83.68;99851.88;5513840;32;33894;-55
2022/09/16 08:01:11;;;;;;;9.82;6.45;;;;;;;17.98;84.86;99849.69;5513914;32;33555;-55
2022/09/16 08:04:13;;;;;;;6.90;5.62;;;;;;;18.00;84.64;99852.84;5520273;32;33704;-55
2022/09/16 08:07:15;;;;;;;13.35;6.35;;;;;;;17.99;82.00;99851.28;5535577;32;33592;-55
2022/09/16 08:10:18;;;;;;;7.10;5.22;;;;;;;18.00;82.49;99858.28;5552517;32;34486;-55
2022/09/16 08:13:20;;;;;;;8.02;4.93;;;;;;;18.03;81.04;99861.09;5547952;32;34297;-55
2022/09/16 08:16:23;;;;;;;8.73;4.93;;;;;;;18.05;79.17;99866.19;5556682;32;33585;-55
2022/09/16 08:19:26;;;;;;;9.43;5.47;;;;;;;18.08;75.74;99860.88;5545791;32;34326;-55
2022/09/16 08:22:28;;;;;;;6.87;4.30;;;;;;;18.09;78.49;99861.66;5549582;32;33723;-55
2022/09/16 08:25:30;;;;;;;9.57;4.85;;;;;;;18.04;73.60;99859.16;5555715;32;34435;-56
2022/09/16 08:28:33;;;;;;;6.18;4.35;;;;;;;18.03;76.60;99860.31;5555696;32;34088;-55
2022/09/16 08:31:52;;;;;;;11.05;4.87;;;;;;;18.12;73.75;99862.91;5554489;32;33791;-55
2022/09/16 08:34:54;;;;;;;8.80;5.15;;;;;;;18.04;76.79;99862.66;5553529;31;34271;-55
2022/09/16 08:37:57;;;;;;;7.03;4.50;;;;;;;18.07;79.62;99864.69;5573575;31;33598;-55
2022/09/16 08:41:04;;;;;;;430.67;39.25;;;;;;;18.02;74.86;99861.44;5549578;32;33622;-55
2022/09/16 08:44:25;;;;;;;12.90;4.62;;;;;;;18.12;75.08;99863.69;5551952;32;33786;-55
2022/09/16 08:47:48;;;;;;;11.88;4.30;;;;;;;18.09;75.79;99872.50;5556504;32;34310;-55
2022/09/16 08:50:51;;;;;;;10.02;5.00;;;;;;;18.04;74.00;99865.38;5547798;32;33965;-55
2022/09/16 08:53:58;;;;;;;19.77;5.43;;;;;;;18.11;75.58;99867.50;5559489;31;33596;-55
2022/09/16 08:57:03;;;;;;;10.90;4.18;;;;;;;18.13;75.25;99867.19;5552724;32;34344;-55
2022/09/16 09:00:13;;;;;;;12.52;4.12;;;;;;;18.07;72.69;99859.28;5549156;32;33743;-55
2022/09/16 09:03:26;;;;;;;42.55;6.68;;;;;;;18.03;73.61;99871.16;5549507;32;33686;-55
2022/09/16 09:06:45;;;;;;;10.27;4.12;;;;;;;18.18;74.72;99880.50;5558010;31;34273;-55
2022/09/16 09:10:06;;;;;;;8.38;4.70;;;;;;;18.10;74.92;99884.13;5560055;32;34226;-55
2022/09/16 09:13:35;;;;;;;9.63;4.57;;;;;;;18.14;78.19;99888.53;5552937;32;33722;-55
2022/09/16 09:16:50;;;;;;;10.13;4.20;;;;;;;18.15;75.01;99882.00;5569045;31;34264;-55
2022/09/16 09:20:19;;;;;;;8.77;4.63;;;;;;;18.16;75.69;99874.62;5564832;31;34876;-55
2022/09/16 09:23:40;;;;;;;5.70;4.32;;;;;;;18.12;77.66;99871.03;5588898;31;34340;-55
2022/09/16 09:26:49;;;;;;;7.97;4.40;;;;;;;18.11;78.51;99853.16;5559468;31;34098;-55
2022/09/16 09:30:12;;;;;;;7.95;4.35;;;;;;;17.98;77.13;99860.53;5563191;32;33490;-55
2022/09/16 09:33:32;;;;;;;7.43;4.72;;;;;;;17.95;77.53;99853.91;5559492;32;34349;-55
2022/09/16 09:37:16;;;;;;;5.20;4.05;;;;;;;18.06;78.76;99859.62;5568290;31;33704;-55
2022/09/16 09:40:48;;;;;;;7.20;4.32;;;;;;;17.95;75.80;99862.03;5557902;32;34293;-55
2022/09/16 09:44:29;;;;;;;5.62;4.12;;;;;;;17.91;77.30;99866.53;5558239;32;33611;-55
2022/09/16 09:47:46;;;;;;;7.40;4.25;;;;;;;17.95;77.40;99869.38;5575273;31;33718;-55
2022/09/16 09:50:50;;;;;;;7.93;4.28;;;;;;;17.88;75.65;99872.66;5553571;31;33692;-55
2022/09/16 09:54:20;;;;;;;9.02;4.43;;;;;;;17.90;77.04;99875.81;5555339;31;33860;-55
2022/09/16 09:57:34;;;;;;;9.27;4.55;;;;;;;17.99;77.46;99859.41;5570147;31;33656;-56
2022/09/16 10:00:37;;;;;;;6.30;4.53;;;;;;;18.11;77.28;99856.66;5568385;32;34407;-55
2022/09/16 10:03:39;;;;;;;6.60;4.45;;;;;;;18.20;79.12;99864.66;5556009;32;33763;-55
2022/09/16 10:06:44;;;;;;;5.43;4.50;;;;;;;18.35;75.98;99844.97;5552012;32;33839;-55
2022/09/16 10:09:49;;;;;;;6.62;3.87;;;;;;;18.45;76.74;99844.47;5559258;31;33635;-56
2022/09/16 10:12:52;;;;;;;7.05;4.25;;;;;;;18.54;76.70;99849.72;5558346;31;33691;-55
2022/09/16 10:16:09;;;;;;;7.90;4.18;;;;;;;18.57;78.23;99848.25;5567637;31;33406;-55
2022/09/16 10:19:17;;;;;;;6.28;4.05;;;;;;;18.64;75.07;99851.97;5561528;31;34203;-55
2022/09/16 10:22:25;;;;;;;7.65;3.55;;;;;;;18.66;73.78;99852.38;5561591;31;34329;-55
2022/09/16 10:25:30;;;;;;;7.72;3.92;;;;;;;18.68;74.57;99847.41;5566753;31;33657;-55
2022/09/16 10:28:32;;;;;;;8.02;3.90;;;;;;;18.69;72.85;99846.28;5559048;32;34387;-55
2022/09/16 10:31:37;;;;;;;10.15;3.28;;;;;;;18.75;69.11;99847.63;5558972;32;33923;-55
2022/09/16 10:34:41;;;;;;;4.97;3.12;;;;;;;18.71;72.68;99841.28;5562070;32;33675;-55
2022/09/16 10:37:50;;;;;;;6.32;3.62;;;;;;;18.67;70.57;99842.31;5566131;31;34960;-55
2022/09/16 10:41:13;;;;;;;4.90;3.33;;;;;;;18.68;71.53;99838.47;5550556;31;33671;-55
2022/09/16 10:44:28;;;;;;;3.55;3.00;;;;;;;18.73;72.02;99835.53;5561095;32;33742;-55
2022/09/16 10:47:32;;;;;;;7.75;3.60;;;;;;;18.69;67.14;99846.28;5561834;31;34221;-55
2022/09/16 10:50:34;;;;;;;5.43;3.55;;;;;;;18.65;68.99;99836.47;5571144;31;33680;-55
2022/09/16 10:53:44;;;;;;;5.87;3.25;;;;;;;18.63;68.67;99844.94;5562796;31;34022;-55
2022/09/16 10:56:50;;;;;;;6.97;3.58;;;;;;;18.65;70.43;99850.03;5562165;31;33662;-55
2022/09/16 11:00:14;;;;;;;7.32;3.60;;;;;;;18.67;71.01;99845.03;5565917;31;33304;-55
2022/09/16 11:03:35;;;;;;;5.60;2.95;;;;;;;18.64;66.21;99853.88;5561596;31;33860;-55
2022/09/16 11:07:10;;;;;;;5.90;3.00;;;;;;;18.63;66.91;99857.72;5559913;31;33738;-55
2022/09/16 11:10:25;;;;;;;7.97;3.40;;;;;;;18.61;67.46;99860.81;5558604;32;33759;-55
2022/09/16 11:13:37;;;;;;;6.00;2.90;;;;;;;18.58;67.18;99858.00;5570945;31;33786;-55
2022/09/16 11:16:49;;;;;;;5.37;3.10;;;;;;;18.67;68.48;99859.38;5573301;31;32428;-55
2022/09/16 11:20:29;;;;;;;4.47;2.60;;;;;;;18.74;68.54;99851.50;5568880;32;33800;-55
2022/09/16 11:23:40;;;;;;;5.75;3.00;;;;;;;18.78;67.25;99857.00;5568196;32;34316;-55
2022/09/16 11:26:58;;;;;;;4.87;2.87;;;;;;;18.86;69.06;99853.34;5569668;31;33774;-55
2022/09/16 11:30:13;;;;;;;5.95;3.10;;;;;;;18.94;63.85;99854.28;5561461;31;33727;-56
2022/09/16 11:33:35;;;;;;;6.72;3.00;;;;;;;18.94;63.37;99840.72;5560533;31;34445;-55
2022/09/16 11:37:18;;;;;;;7.65;3.10;;;;;;;18.90;62.29;99831.69;5577365;31;33707;-54
2022/09/16 11:40:52;;;;;;;5.95;2.47;;;;;;;18.91;63.23;99833.28;5550458;31;33656;-54
2022/09/16 11:44:23;;;;;;;5.93;2.65;;;;;;;19.02;64.99;99821.53;5559079;31;34251;-55
2022/09/16 11:47:32;;;;;;;4.68;2.55;;;;;;;19.05;59.40;99830.12;5565296;32;33577;-55
2022/09/16 11:51:00;;;;;;;4.20;2.10;;;;;;;19.13;59.36;99832.66;5567491;31;33713;-55
2022/09/16 11:54:21;;;;;;;5.18;2.25;;;;;;;19.20;59.20;99818.47;5569483;31;34363;-55
2022/09/16 11:57:34;;;;;;;3.50;2.20;;;;;;;19.16;57.56;99812.94;5563740;32;33797;-55
2022/09/16 12:00:38;;;;;;;5.28;2.30;;;;;;;19.16;59.46;99812.94;5560768;32;33764;-55
2022/09/16 12:04:03;;;;;;;10.10;2.97;;;;;;;19.24;60.19;99805.78;5566714;32;33715;-55
2022/09/16 12:07:23;;;;;;;13.20;2.83;;;;;;;19.30;59.37;99814.44;5559871;32;33853;-55
2022/09/16 12:10:35;;;;;;;4.32;2.22;;;;;;;19.34;60.66;99810.66;5548923;32;34274;-55
2022/09/16 12:13:43;;;;;;;5.40;2.60;;;;;;;19.42;61.04;99803.47;5554160;32;33737;-55
2022/09/16 12:17:00;;;;;;;5.22;3.03;;;;;;;19.43;61.70;99791.44;5567683;32;33352;-55
2022/09/16 12:20:20;;;;;;;6.45;2.47;;;;;;;19.36;61.74;99802.94;5563341;32;34270;-55
2022/09/16 12:23:27;;;;;;;9.80;2.80;;;;;;;19.33;62.42;99806.34;5566151;32;34432;-55
2022/09/16 12:26:35;;;;;;;9.10;2.83;;;;;;;19.32;60.89;99798.56;5564905;32;33776;-55
2022/09/16 12:29:55;;;;;;;11.43;3.17;;;;;;;19.42;64.03;99790.66;5563633;32;33728;-55
2022/09/16 12:33:05;;;;;;;6.40;2.85;;;;;;;19.42;63.13;99795.31;5550694;32;33304;-55
2022/09/16 12:36:13;;;;;;;5.65;2.60;;;;;;;19.36;62.17;99791.28;5550867;32;34403;-55
2022/09/16 12:39:21;;;;;;;6.40;2.80;;;;;;;19.28;61.58;99800.41;5551079;32;34490;-55
2022/09/16 12:42:32;;;;;;;8.70;2.80;;;;;;;19.25;61.56;99791.81;5551067;32;33855;-55
2022/09/16 12:45:51;;;;;;;5.50;2.67;;;;;;;19.21;60.54;99785.53;5551124;32;33587;-55
2022/09/16 12:49:17;;;;;;;5.78;3.12;;;;;;;19.22;64.39;99776.22;5551201;32;34357;-55
2022/09/16 12:52:24;;;;;;;;;;;;;;;19.22;64.03;99775.44;5551331;32;34457;-55
2022/09/16 12:55:54;;;;;;;5.40;3.40;;;;;;;19.31;66.43;99772.53;5550995;32;34663;-55
2022/09/16 12:59:15;;;;;;;6.00;3.45;;;;;;;19.28;65.80;99768.59;5551102;32;33665;-55
2022/09/16 13:02:21;;;;;;;11.80;3.45;;;;;;;19.35;67.27;99770.69;5551059;32;33679;-55
2022/09/16 13:05:31;;;;;;;;;;;;;;;19.37;66.65;99762.94;5551435;32;34227;-55
2022/09/16 13:08:35;;;;;;;15.02;4.15;;;;;;;19.46;66.85;99760.84;5550783;32;34561;-55
2022/09/16 13:11:39;;;;;;;5.12;3.20;;;;;;;19.67;66.08;99760.56;5550900;32;34422;-55
2022/09/16 13:15:04;;;;;;;9.43;3.10;;;;;;;19.72;64.76;99749.37;5550068;32;33736;-55
2022/09/16 13:18:37;;;;;;;9.25;3.45;;;;;;;19.81;63.69;99751.91;5558675;32;33821;-55
2022/09/16 13:21:46;;;;;;;5.78;2.85;;;;;;;19.80;66.03;99753.03;5565737;32;34329;-55
2022/09/16 13:25:23;;;;;;;5.68;2.83;;;;;;;19.76;67.52;99760.34;5570155;32;33781;-55
2022/09/16 13:28:32;;;;;;;6.00;2.40;;;;;;;19.69;69.30;99755.53;5570163;32;33671;-55
2022/09/16 13:31:46;;;;;;;4.85;2.50;;;;;;;19.77;65.00;99761.91;5570225;32;33864;-55
2022/09/16 13:35:03;;;;;;;7.25;3.15;;;;;;;19.79;64.79;99754.97;5570334;32;33869;-55
2022/09/16 13:38:22;;;;;;;11.27;2.90;;;;;;;19.91;64.26;99751.31;5569608;32;33784;-55
2022/09/16 13:41:38;;;;;;;11.18;2.97;;;;;;;19.74;63.82;99744.38;5569667;32;33693;-55
2022/09/16 13:44:41;;;;;;;;;;;;;;;19.84;63.90;99743.81;5570428;32;34229;-55
2022/09/16 13:47:48;;;;;;;8.82;2.90;;;;;;;19.77;62.07;99748.31;5569643;32;34042;-55
2022/09/16 13:51:01;;;;;;;8.95;2.70;;;;;;;19.75;62.65;99742.44;5570069;32;33794;-55
2022/09/16 13:54:03;;;;;;;6.25;3.05;;;;;;;19.73;63.69;99733.84;5569868;32;33735;-55
2022/09/16 13:57:20;;;;;;;6.85;2.60;;;;;;;19.68;66.33;99724.06;5569841;32;33694;-55
2022/09/16 14:00:27;;;;;;;5.78;2.53;;;;;;;19.59;65.67;99726.16;5569835;32;33652;-55
2022/09/16 14:03:39;;;;;;;7.62;3.58;;;;;;;19.59;67.10;99716.06;5570110;32;33650;-55
2022/09/16 14:06:50;;;;;;;8.23;2.97;;;;;;;19.58;66.01;99709.06;5569657;32;34331;-55
2022/09/16 14:10:08;;;;;;;10.00;2.75;;;;;;;19.58;66.52;99717.22;5569699;32;33897;-55
2022/09/16 14:13:13;;;;;;;8.70;3.00;;;;;;;19.56;64.52;99711.34;5569667;32;34354;-55
2022/09/16 14:16:21;;;;;;;4.87;2.70;;;;;;;19.60;64.13;99719.56;5569597;32;34269;-55
2022/09/16 14:19:27;;;;;;;6.32;2.90;;;;;;;19.53;65.27;99713.97;5569648;32;33640;-55
2022/09/16 14:22:30;;;;;;;5.97;2.53;;;;;;;19.47;66.32;99711.56;5569865;32;33859;-55
2022/09/16 14:25:35;;;;;;;6.45;2.90;;;;;;;19.50;68.85;99710.03;5569892;32;33768;-55
2022/09/16 14:28:38;;;;;;;6.65;2.95;;;;;;;19.45;67.04;99708.41;5569589;32;34373;-55
2022/09/16 14:31:44;;;;;;;9.30;3.42;;;;;;;19.52;67.50;99707.75;5569756;32;33613;-55
2022/09/16 14:34:51;;;;;;;5.97;3.08;;;;;;;19.47;68.17;99713.50;5569827;32;33743;-55
2022/09/16 14:38:02;;;;;;;5.53;3.03;;;;;;;19.51;68.21;99702.69;5569612;32;34384;-55
2022/09/16 14:41:06;;;;;;;5.07;3.10;;;;;;;19.56;67.82;99710.56;5569875;32;34556;-55
2022/09/16 14:44:17;;;;;;;5.80;3.00;;;;;;;19.41;68.82;99710.25;5569809;32;33683;-55
2022/09/16 14:47:21;;;;;;;4.62;2.90;;;;;;;19.36;69.96;99713.25;5569897;32;33763;-54
2022/09/16 14:50:46;;;;;;;5.75;3.40;;;;;;;19.41;69.06;99704.03;5569246;32;33290;-55
2022/09/16 14:53:56;;;;;;;6.22;3.42;;;;;;;19.36;70.13;99696.16;5568967;32;34307;-54
2022/09/16 14:57:26;;;;;;;6.62;3.10;;;;;;;19.34;70.50;99685.66;5569615;32;34278;-55
2022/09/16 15:01:00;;;;;;;9.77;3.70;;;;;;;19.58;68.21;99683.81;5569575;32;33624;-55
2022/09/16 15:04:10;;;;;;;7.43;3.67;;;;;;;19.45;70.11;99691.31;5564001;32;33679;-55
2022/09/16 15:07:22;;;;;;;65.70;6.75;;;;;;;19.31;69.85;99691.81;5569329;32;34776;-55
2022/09/16 15:10:27;;;;;;;11.52;4.43;;;;;;;19.34;69.67;99684.88;5569286;32;34266;-55
2022/09/16 15:13:43;;;;;;;6.10;3.47;;;;;;;19.31;70.84;99688.31;5569469;32;34415;-55
2022/09/16 15:16:54;;;;;;;6.28;3.55;;;;;;;19.17;70.51;99695.00;5569218;32;33436;-55
2022/09/16 15:19:58;;;;;;;6.60;3.45;;;;;;;19.18;70.82;99691.13;5569259;32;34442;-55
2022/09/16 15:23:04;;;;;;;8.40;3.67;;;;;;;19.14;72.20;99689.47;5569490;32;33738;-54
2022/09/16 15:26:17;;;;;;;9.57;3.85;;;;;;;19.10;73.08;99700.25;5569421;32;33637;-55
2022/09/16 15:29:19;;;;;;;7.28;3.67;;;;;;;19.04;72.40;99709.84;5569371;32;33775;-55
2022/09/16 15:32:26;;;;;;;6.47;4.20;;;;;;;19.03;74.20;99705.53;5569184;32;33616;-55
